You are not logged in, Click here to log in
ICAO: VMMC Country: 澳門
Latitude: 22.1578 Longitude: 113.576
Total Arrivals: 46 Total Departures: 53
Latest Arrival: NX897 (VVNB-VMMC)Lun. Wang Latest Departure: BR836 (VMMC-RCKH)Lun. Wang
Scenery:
METAR : VMMC 232000Z 25004KT 220V320 8000 FEW030 28/26 Q1004 NOSIG

澳門國際機場MFM